Time;durP1;ratioP1;P1;durP2;ratioP2;P2;SDS_P1;SDS_P2;PMS_P1;PMS_P2;Temp;Humidity;BMP_temperature;BMP_pressure;BME280_temperature;BME280_humidity;BME280_pressure;Samples;Min_cycle;Max_cycle;Signal;HPM_P1;HPM_P2
2024/04/20 00:00:29;;;;;;;4.57;4.00;;;17.70;53.40;;;;;;5325233;26;21025;-77
2024/04/20 00:03:00;;;;;;;5.37;4.33;;;17.70;53.10;;;;;;5343097;26;20487;-77
2024/04/20 00:05:30;;;;;;;4.67;4.27;;;17.60;53.30;;;;;;5351021;26;20470;-76
2024/04/20 00:08:00;;;;;;;5.90;4.20;;;17.60;53.10;;;;;;5344759;26;20466;-77
2024/04/20 00:10:33;;;;;;;5.47;4.47;;;17.60;53.30;;;;;;5330988;26;20471;-77
2024/04/20 00:13:03;;;;;;;6.40;4.57;;;17.60;53.00;;;;;;5345032;26;21103;-76
2024/04/20 00:15:33;;;;;;;5.10;4.60;;;17.60;53.20;;;;;;5331114;26;20535;-75
2024/04/20 00:18:03;;;;;;;6.13;4.57;;;17.60;53.10;;;;;;5330613;26;20534;-77
2024/04/20 00:20:33;;;;;;;7.50;4.10;;;17.60;53.10;;;;;;5347352;26;20476;-76
2024/04/20 00:23:05;;;;;;;5.63;4.67;;;17.60;52.90;;;;;;5359047;26;20576;-77
2024/04/20 00:25:41;;;;;;;5.30;4.13;;;17.60;53.00;;;;;;5344765;26;20455;-76
2024/04/20 00:28:10;;;;;;;6.90;4.63;;;17.60;53.10;;;;;;5348569;26;20524;-80
2024/04/20 00:30:41;;;;;;;8.97;5.07;;;17.60;52.90;;;;;;5344597;26;20471;-79
2024/04/20 00:33:11;;;;;;;4.43;4.03;;;17.60;52.80;;;;;;5344868;26;20882;-79
2024/04/20 00:35:42;;;;;;;7.60;4.93;;;17.60;52.80;;;;;;5344630;26;20472;-79
2024/04/20 00:38:12;;;;;;;8.10;4.87;;;17.60;52.80;;;;;;5358431;26;21021;-78
2024/04/20 00:40:45;;;;;;;5.53;4.67;;;17.60;52.80;;;;;;5358983;26;20476;-78
2024/04/20 00:43:19;;;;;;;6.37;4.70;;;17.60;52.80;;;;;;5358244;26;20583;-78
2024/04/20 00:45:50;;;;;;;6.33;4.73;;;17.60;52.60;;;;;;5368855;26;20576;-78
2024/04/20 00:48:20;;;;;;;6.40;4.53;;;17.60;52.80;;;;;;5362447;26;20487;-79
2024/04/20 00:50:50;;;;;;;9.00;5.30;;;17.60;52.60;;;;;;5352215;26;20458;-78
2024/04/20 00:53:21;;;;;;;5.93;5.00;;;17.60;52.60;;;;;;5347026;26;20512;-78
2024/04/20 00:55:54;;;;;;;5.70;4.80;;;17.60;52.60;;;;;;5344061;26;20475;-78
2024/04/20 00:58:24;;;;;;;6.10;4.37;;;17.60;52.50;;;;;;5344021;26;20583;-84
2024/04/20 01:00:54;;;;;;;5.93;5.37;;;17.60;52.60;;;;;;5343642;26;20583;-82
2024/04/20 01:03:26;;;;;;;6.53;5.30;;;17.70;52.50;;;;;;5355621;26;20523;-81
2024/04/20 01:05:57;;;;;;;7.70;4.60;;;17.60;52.30;;;;;;5326059;26;20536;-79
2024/04/20 01:08:27;;;;;;;8.00;5.03;;;17.60;52.50;;;;;;5344575;26;20480;-79
2024/04/20 01:11:00;;;;;;;7.43;5.77;;;17.60;52.30;;;;;;5344145;26;20479;-78
2024/04/20 01:13:30;;;;;;;10.93;7.23;;;17.60;52.40;;;;;;5340577;26;20483;-78
2024/04/20 01:16:00;;;;;;;13.20;7.90;;;17.60;52.50;;;;;;5347537;26;20472;-78
2024/04/20 01:18:30;;;;;;;11.47;8.40;;;17.60;52.30;;;;;;5342823;26;21041;-78
2024/04/20 01:21:00;;;;;;;11.23;7.57;;;17.60;52.40;;;;;;5346793;26;20520;-78
2024/04/20 01:23:30;;;;;;;15.70;9.50;;;17.60;52.40;;;;;;5367644;26;20482;-78
2024/04/20 01:26:03;;;;;;;13.17;8.50;;;17.60;52.50;;;;;;5369286;26;20513;-78
2024/04/20 01:28:33;;;;;;;17.37;9.90;;;17.60;52.40;;;;;;5347422;26;20583;-78
2024/04/20 01:31:04;;;;;;;13.23;8.90;;;17.60;52.50;;;;;;5347418;26;20549;-79
2024/04/20 01:33:34;;;;;;;13.93;9.93;;;17.60;52.40;;;;;;5343455;26;20492;-78
2024/04/20 01:36:04;;;;;;;16.17;10.33;;;17.60;52.40;;;;;;5335709;26;20520;-81
2024/04/20 01:38:34;;;;;;;16.07;10.30;;;17.50;52.20;;;;;;5347470;26;20522;-79
2024/04/20 01:41:08;;;;;;;16.63;10.20;;;17.50;52.30;;;;;;5347811;26;20525;-83
2024/04/20 01:43:38;;;;;;;16.20;10.07;;;17.50;52.40;;;;;;5343666;26;21049;-79
2024/04/20 01:46:08;;;;;;;15.33;10.77;;;17.60;52.60;;;;;;5347543;26;20561;-79
2024/04/20 01:48:38;;;;;;;12.47;8.67;;;17.60;52.30;;;;;;5336709;26;20483;-79
2024/04/20 01:51:08;;;;;;;14.13;9.50;;;17.60;52.40;;;;;;5362212;26;20530;-79
2024/04/20 01:53:39;;;;;;;20.83;9.60;;;17.60;52.30;;;;;;5347870;26;20479;-78
2024/04/20 01:56:11;;;;;;;14.57;9.93;;;17.60;52.30;;;;;;5349135;26;20518;-78
2024/04/20 01:58:42;;;;;;;15.90;10.10;;;17.60;52.40;;;;;;5349519;26;20570;-81
2024/04/20 02:01:12;;;;;;;15.20;9.90;;;17.60;52.40;;;;;;5360959;26;20591;-82
2024/04/20 02:03:43;;;;;;;15.73;10.00;;;17.60;52.40;;;;;;5360451;26;20531;-79
2024/04/20 02:06:13;;;;;;;16.10;9.80;;;17.60;52.30;;;;;;5346504;26;20518;-78
2024/04/20 02:08:45;;;;;;;15.13;10.70;;;17.60;52.40;;;;;;5346464;26;20471;-78
2024/04/20 02:11:18;;;;;;;14.10;9.33;;;17.60;52.40;;;;;;5346665;26;20517;-78
2024/04/20 02:13:48;;;;;;;14.10;9.70;;;17.60;52.30;;;;;;5334454;26;20507;-78
2024/04/20 02:16:18;;;;;;;16.50;10.27;;;17.60;52.40;;;;;;5350417;26;20523;-78
2024/04/20 02:22:36;;;;;;;13.43;9.77;;;17.50;52.20;;;;;;5331745;26;20537;-79
2024/04/20 02:25:06;;;;;;;12.40;9.10;;;17.50;52.40;;;;;;5366508;26;20458;-79
2024/04/20 02:27:39;;;;;;;14.20;9.40;;;17.50;52.50;;;;;;5331670;26;20552;-78
2024/04/20 02:30:10;;;;;;;12.93;8.93;;;17.50;52.40;;;;;;5316231;26;20471;-81
2024/04/20 02:32:40;;;;;;;13.73;9.43;;;17.50;52.50;;;;;;5346251;26;20517;-78
2024/04/20 02:35:10;;;;;;;12.63;8.70;;;17.50;52.60;;;;;;5329854;26;20541;-79
2024/04/20 02:37:40;;;;;;;11.80;8.03;;;17.50;52.50;;;;;;5379994;26;20597;-78
2024/04/20 02:40:11;;;;;;;13.70;8.93;;;17.50;52.30;;;;;;5350514;26;20466;-78
2024/04/20 02:42:44;;;;;;;13.77;9.27;;;17.50;52.30;;;;;;5381245;26;20458;-77
2024/04/20 02:45:17;;;;;;;11.93;7.67;;;17.50;52.40;;;;;;5381300;26;20478;-78
2024/04/20 02:47:47;;;;;;;11.30;7.37;;;17.50;52.30;;;;;;5381388;26;20443;-78
2024/04/20 02:50:17;;;;;;;12.40;8.30;;;17.50;52.40;;;;;;5380966;26;20482;-79
2024/04/20 02:52:47;;;;;;;10.87;7.97;;;17.50;52.40;;;;;;5380807;26;20470;-81
2024/04/20 02:55:17;;;;;;;13.27;7.70;;;17.50;52.40;;;;;;5381198;26;20466;-82
2024/04/20 02:57:51;;;;;;;14.23;7.97;;;17.50;52.60;;;;;;5381273;26;20505;-78
2024/04/20 03:00:21;;;;;;;11.30;7.30;;;17.50;52.40;;;;;;5348748;26;20489;-78
2024/04/20 03:02:53;;;;;;;9.67;6.70;;;17.50;52.40;;;;;;5353187;26;20538;-79
2024/04/20 03:05:23;;;;;;;10.40;7.20;;;17.50;52.50;;;;;;5336450;26;20501;-81
2024/04/20 03:07:53;;;;;;;10.80;7.57;;;17.50;52.40;;;;;;5324146;26;20475;-77
2024/04/20 03:10:23;;;;;;;11.67;7.00;;;17.40;52.40;;;;;;5329456;26;20533;-77
2024/04/20 03:12:57;;;;;;;12.73;8.20;;;17.40;52.40;;;;;;5345639;26;20584;-78
2024/04/20 03:15:27;;;;;;;11.30;6.83;;;17.40;52.40;;;;;;5318219;26;20577;-78
2024/04/20 03:17:57;;;;;;;10.07;7.23;;;17.40;52.50;;;;;;5341288;26;20472;-78
2024/04/20 03:20:27;;;;;;;11.50;6.97;;;17.40;52.50;;;;;;5317113;26;20520;-79
2024/04/20 03:22:57;;;;;;;8.70;6.33;;;17.40;52.50;;;;;;5346443;26;21000;-78
2024/04/20 03:25:27;;;;;;;9.30;6.90;;;17.40;52.60;;;;;;5343726;26;20489;-79
2024/04/20 03:28:00;;;;;;;8.57;6.50;;;17.40;52.40;;;;;;5271969;26;20534;-79
2024/04/20 03:30:30;;;;;;;9.13;6.13;;;17.30;52.40;;;;;;5340391;26;21004;-79
2024/04/20 03:33:00;;;;;;;8.33;5.93;;;17.40;52.50;;;;;;5312770;26;20574;-78
2024/04/20 03:35:30;;;;;;;9.87;6.50;;;17.40;52.40;;;;;;5345351;26;20588;-78
2024/04/20 03:38:00;;;;;;;10.93;6.60;;;17.40;53.00;;;;;;5313491;26;20471;-77
2024/04/20 03:40:30;;;;;;;8.00;5.63;;;17.40;52.40;;;;;;5345081;26;20476;-79
2024/04/20 03:43:03;;;;;;;7.80;6.00;;;17.40;52.40;;;;;;5371115;26;20474;-79
2024/04/20 03:45:35;;;;;;;9.87;6.83;;;17.40;52.40;;;;;;5335722;26;20479;-78
2024/04/20 03:48:05;;;;;;;8.70;5.83;;;17.40;52.40;;;;;;5285053;26;20489;-79
2024/04/20 03:50:35;;;;;;;8.20;6.40;;;17.40;52.40;;;;;;5342887;26;20536;-79
2024/04/20 03:53:05;;;;;;;7.10;5.70;;;17.40;52.40;;;;;;5350701;26;20469;-79
2024/04/20 03:55:35;;;;;;;7.37;4.80;;;17.40;52.40;;;;;;5346110;26;20472;-79
2024/04/20 03:58:08;;;;;;;8.10;5.23;;;17.30;52.30;;;;;;5333443;26;20594;-81
2024/04/20 04:00:38;;;;;;;7.63;5.53;;;17.30;52.30;;;;;;5351167;26;20534;-79
2024/04/20 04:03:14;;;;;;;7.40;5.87;;;17.30;52.30;;;;;;5334660;26;20529;-78
2024/04/20 04:05:45;;;;;;;6.57;5.47;;;17.30;52.30;;;;;;5346366;26;20475;-79
2024/04/20 04:08:15;;;;;;;8.60;5.67;;;17.30;52.20;;;;;;5324398;26;20515;-78
2024/04/20 04:10:44;;;;;;;8.17;5.53;;;17.30;52.30;;;;;;5310679;26;20569;-78
2024/04/20 04:13:17;;;;;;;9.50;5.37;;;17.30;52.30;;;;;;5328197;26;20518;-78
2024/04/20 04:15:47;;;;;;;7.00;5.30;;;17.30;52.20;;;;;;5314533;26;20982;-78
2024/04/20 04:18:17;;;;;;;6.33;5.17;;;17.30;52.30;;;;;;5332668;26;20529;-78
2024/04/20 04:20:47;;;;;;;7.10;5.50;;;17.30;52.20;;;;;;5362844;26;20485;-79
2024/04/20 04:23:17;;;;;;;7.90;5.70;;;17.30;52.30;;;;;;5374033;26;20466;-78
2024/04/20 04:25:47;;;;;;;6.23;4.90;;;17.30;52.20;;;;;;5365253;26;20526;-78
2024/04/20 04:28:20;;;;;;;8.27;5.30;;;17.30;52.20;;;;;;5349793;26;20559;-79
2024/04/20 04:30:50;;;;;;;5.73;4.67;;;17.30;52.10;;;;;;5363907;26;20450;-78
2024/04/20 04:33:20;;;;;;;5.77;4.67;;;17.20;52.00;;;;;;5338074;26;20471;-78
2024/04/20 04:35:50;;;;;;;6.63;5.40;;;17.20;52.30;;;;;;5356296;26;20543;-78
2024/04/20 04:38:20;;;;;;;7.33;5.30;;;17.20;52.20;;;;;;5343800;26;20472;-78
2024/04/20 04:40:49;;;;;;;5.13;4.63;;;17.30;52.20;;;;;;5363487;26;20466;-79
2024/04/20 04:43:22;;;;;;;5.27;4.60;;;17.30;52.00;;;;;;5334147;26;20482;-79
2024/04/20 04:45:52;;;;;;;7.43;5.57;;;17.30;52.00;;;;;;5308271;26;20525;-79
2024/04/20 04:48:22;;;;;;;6.20;4.57;;;17.30;52.20;;;;;;5311025;26;20519;-79
2024/04/20 04:50:53;;;;;;;6.93;5.10;;;17.30;52.00;;;;;;5283296;27;20497;-79
2024/04/20 04:53:22;;;;;;;6.20;5.00;;;17.20;52.00;;;;;;5339550;26;20593;-79
2024/04/20 04:55:53;;;;;;;5.27;4.30;;;17.30;52.00;;;;;;5347640;26;20594;-78
2024/04/20 04:58:25;;;;;;;5.97;5.00;;;17.20;51.90;;;;;;5318226;26;20526;-78
2024/04/20 05:00:55;;;;;;;6.47;4.50;;;17.20;51.90;;;;;;5347472;26;20573;-79
2024/04/20 05:03:26;;;;;;;5.50;4.30;;;17.30;52.00;;;;;;5331406;26;20479;-77
2024/04/20 05:05:55;;;;;;;5.37;4.37;;;17.30;52.00;;;;;;5352948;26;20577;-78
2024/04/20 05:08:26;;;;;;;5.70;4.60;;;17.30;51.90;;;;;;5347178;26;21011;-77
2024/04/20 05:10:56;;;;;;;5.50;4.90;;;17.30;51.80;;;;;;5347351;26;20591;-78
2024/04/20 05:13:29;;;;;;;7.30;4.90;;;17.30;51.80;;;;;;5310932;26;20544;-78
2024/04/20 05:15:59;;;;;;;5.90;4.40;;;17.30;51.80;;;;;;5304208;26;20547;-82
2024/04/20 05:18:29;;;;;;;4.60;4.13;;;17.30;51.90;;;;;;5347050;26;20552;-81
2024/04/20 05:20:59;;;;;;;6.47;4.20;;;17.30;51.90;;;;;;5340092;26;20529;-83
2024/04/20 05:23:29;;;;;;;5.23;4.67;;;17.30;51.90;;;;;;5296283;26;20515;-81
2024/04/20 05:25:59;;;;;;;5.47;4.40;;;17.30;51.90;;;;;;5345542;26;20500;-78
2024/04/20 05:28:33;;;;;;;5.07;4.30;;;17.30;51.90;;;;;;5347308;26;20490;-77
2024/04/20 05:31:03;;;;;;;6.60;4.10;;;17.30;51.80;;;;;;5347193;26;20467;-78
2024/04/20 05:33:33;;;;;;;6.83;4.40;;;17.30;52.00;;;;;;5345299;26;20483;-80
2024/04/20 05:36:05;;;;;;;4.97;4.33;;;17.30;51.70;;;;;;5347555;26;20561;-78
2024/04/20 05:38:36;;;;;;;4.97;4.47;;;17.30;52.00;;;;;;5347042;26;20464;-78
2024/04/20 05:41:05;;;;;;;5.27;4.53;;;17.30;52.00;;;;;;5317288;26;20500;-77
2024/04/20 05:43:38;;;;;;;4.37;3.80;;;17.30;51.80;;;;;;5347236;26;20516;-77
2024/04/20 05:46:08;;;;;;;6.27;4.30;;;17.30;51.70;;;;;;5346774;26;20459;-77
2024/04/20 05:48:38;;;;;;;5.17;4.47;;;17.30;51.80;;;;;;5316436;26;20550;-77
2024/04/20 05:51:08;;;;;;;5.60;4.23;;;17.30;51.80;;;;;;5346983;26;20467;-78
2024/04/20 05:53:37;;;;;;;5.03;4.43;;;17.30;51.90;;;;;;5316930;26;20459;-77
2024/04/20 05:56:07;;;;;;;4.93;3.67;;;17.30;52.00;;;;;;5347088;26;20502;-80
2024/04/20 05:58:40;;;;;;;5.77;4.30;;;17.30;51.90;;;;;;5346748;26;20472;-81
2024/04/20 06:01:10;;;;;;;5.77;3.93;;;17.30;51.90;;;;;;5315710;26;20463;-77
2024/04/20 06:03:41;;;;;;;5.73;4.57;;;17.30;51.80;;;;;;5346899;26;20464;-77
2024/04/20 06:06:11;;;;;;;5.30;4.17;;;17.30;51.70;;;;;;5347006;26;20479;-76
2024/04/20 06:08:41;;;;;;;3.97;3.50;;;17.30;52.50;;;;;;5346828;26;20928;-77
2024/04/20 06:11:11;;;;;;;4.13;3.77;;;17.30;51.80;;;;;;5347329;26;20628;-76
2024/04/20 06:13:44;;;;;;;4.27;3.87;;;17.30;51.70;;;;;;5347871;26;20528;-76
2024/04/20 06:16:14;;;;;;;4.27;3.70;;;17.30;51.80;;;;;;5317046;26;20455;-78
2024/04/20 06:18:44;;;;;;;4.30;3.70;;;17.30;51.80;;;;;;5347589;26;20527;-76
2024/04/20 06:21:14;;;;;;;3.83;3.53;;;17.40;51.80;;;;;;5347261;26;20463;-76
2024/04/20 06:23:44;;;;;;;4.33;3.80;;;17.40;51.70;;;;;;5347728;26;20467;-75
2024/04/20 06:26:14;;;;;;;4.00;3.60;;;17.40;51.80;;;;;;5347424;26;20463;-77
2024/04/20 06:28:46;;;;;;;5.13;3.80;;;17.40;51.80;;;;;;5347098;26;21027;-78
2024/04/20 06:31:16;;;;;;;3.80;3.50;;;17.40;51.80;;;;;;5347505;26;20452;-78
2024/04/20 06:33:46;;;;;;;3.60;3.30;;;17.40;51.60;;;;;;5347053;26;20466;-77
2024/04/20 06:36:17;;;;;;;4.17;3.63;;;17.40;51.70;;;;;;5346734;26;20452;-78
2024/04/20 06:38:48;;;;;;;4.27;3.87;;;17.50;51.70;;;;;;5347207;26;20479;-76
2024/04/20 06:41:17;;;;;;;3.43;3.13;;;17.50;51.60;;;;;;5347392;26;20468;-77
2024/04/20 06:43:52;;;;;;;3.60;3.30;;;17.50;51.60;;;;;;5318704;26;20487;-78
2024/04/20 06:46:22;;;;;;;3.70;3.40;;;17.50;51.60;;;;;;5357763;26;20890;-82
2024/04/20 06:48:52;;;;;;;3.27;3.07;;;17.50;51.60;;;;;;5342989;26;20491;-77
2024/04/20 06:51:22;;;;;;;5.70;3.93;;;17.50;51.60;;;;;;5305999;26;20541;-77
2024/04/20 06:53:52;;;;;;;3.47;3.17;;;17.50;51.50;;;;;;5316847;26;20573;-75
2024/04/20 06:56:23;;;;;;;5.50;3.30;;;17.50;51.50;;;;;;5346698;26;20471;-78
2024/04/20 06:58:59;;;;;;;3.37;3.00;;;17.50;51.60;;;;;;5346509;26;20476;-77
2024/04/20 07:01:29;;;;;;;3.77;3.10;;;17.50;51.60;;;;;;5288379;26;20479;-76
2024/04/20 07:04:02;;;;;;;3.13;2.80;;;17.50;51.60;;;;;;5367896;26;20575;-78
2024/04/20 07:06:32;;;;;;;3.33;2.93;;;17.50;51.60;;;;;;5381212;26;20575;-77
2024/04/20 07:09:03;;;;;;;3.53;3.20;;;17.50;51.70;;;;;;5373534;26;20578;-81
2024/04/20 07:11:33;;;;;;;3.33;3.03;;;17.50;51.70;;;;;;5345717;26;20553;-77
2024/04/20 07:14:06;;;;;;;6.73;2.90;;;17.50;51.70;;;;;;5319430;26;20499;-78
2024/04/20 07:16:36;;;;;;;3.43;3.13;;;17.60;51.80;;;;;;5349650;26;20467;-78
2024/04/20 07:19:06;;;;;;;3.13;2.83;;;17.60;51.70;;;;;;5370415;26;20490;-77
2024/04/20 07:21:36;;;;;;;3.90;3.30;;;17.60;51.70;;;;;;5368059;26;20533;-77
2024/04/20 07:24:07;;;;;;;3.07;2.87;;;17.60;51.70;;;;;;5349143;26;20486;-78
2024/04/20 07:26:37;;;;;;;4.73;3.17;;;17.60;51.70;;;;;;5346831;26;20459;-79
2024/04/20 07:29:10;;;;;;;2.90;2.70;;;17.70;51.80;;;;;;5354179;26;20495;-78
2024/04/20 07:31:40;;;;;;;4.70;3.30;;;17.70;51.80;;;;;;5331269;26;20535;-77
2024/04/20 07:34:13;;;;;;;3.00;2.37;;;17.60;51.70;;;;;;5352058;26;20488;-77
2024/04/20 07:36:44;;;;;;;2.73;2.53;;;17.70;51.70;;;;;;5353171;26;20514;-78
2024/04/20 07:39:14;;;;;;;4.93;2.80;;;17.70;51.80;;;;;;5340628;26;20478;-78
2024/04/20 07:41:44;;;;;;;2.30;2.20;;;17.70;51.90;;;;;;5361602;26;20471;-78
2024/04/20 07:44:27;;;;;;;3.43;2.90;;;17.70;51.90;;;;;;5323595;26;20577;-78
2024/04/20 07:47:03;;;;;;;3.00;2.70;;;17.70;51.80;;;;;;5361557;26;20475;-78
2024/04/20 07:49:43;;;;;;;5.70;2.70;;;17.80;51.80;;;;;;5347055;26;20510;-77
2024/04/20 07:52:14;;;;;;;2.73;2.53;;;17.80;51.70;;;;;;5346732;26;20539;-77
2024/04/20 07:54:46;;;;;;;6.27;3.50;;;17.90;51.70;;;;;;5341433;26;20563;-80
2024/04/20 07:57:16;;;;;;;2.60;2.40;;;17.90;51.70;;;;;;5339058;26;20488;-78
2024/04/20 07:59:49;;;;;;;3.10;2.57;;;17.90;51.70;;;;;;5339254;26;20494;-79
2024/04/20 08:02:19;;;;;;;2.40;2.20;;;18.00;51.60;;;;;;5342970;26;20479;-77
2024/04/20 08:04:49;;;;;;;2.70;2.50;;;18.10;51.60;;;;;;5316069;26;20471;-78
2024/04/20 08:07:19;;;;;;;3.00;2.80;;;18.10;51.20;;;;;;5346581;26;20483;-77
2024/04/20 08:09:49;;;;;;;3.00;2.70;;;18.10;51.10;;;;;;5338467;26;20481;-78
2024/04/20 08:12:20;;;;;;;2.70;2.50;;;18.10;51.10;;;;;;5346636;26;20475;-78
2024/04/20 08:14:52;;;;;;;5.13;2.63;;;18.20;51.50;;;;;;5345976;26;20503;-77
2024/04/20 08:17:23;;;;;;;2.30;2.20;;;18.20;51.40;;;;;;5351358;26;20521;-78
2024/04/20 08:19:57;;;;;;;4.00;2.90;;;18.30;51.50;;;;;;5316574;26;20590;-77
2024/04/20 08:22:27;;;;;;;4.80;2.50;;;18.40;51.20;;;;;;5345608;26;20577;-76
2024/04/20 08:24:57;;;;;;;2.80;2.60;;;18.50;51.10;;;;;;5358371;26;20480;-77
2024/04/20 08:27:27;;;;;;;2.60;2.40;;;18.60;51.10;;;;;;5320143;26;20475;-76
2024/04/20 08:30:00;;;;;;;2.40;2.30;;;18.70;51.00;;;;;;5349849;26;20527;-77
2024/04/20 08:32:30;;;;;;;2.80;2.40;;;18.80;50.90;;;;;;5345397;26;20531;-77
2024/04/20 08:35:00;;;;;;;3.30;2.20;;;18.90;50.90;;;;;;5333899;26;20481;-77
2024/04/20 08:37:30;;;;;;;3.47;2.40;;;19.00;50.80;;;;;;5346538;26;20472;-77
2024/04/20 08:40:02;;;;;;;2.67;2.47;;;19.00;50.80;;;;;;5316552;26;20476;-77
2024/04/20 08:42:35;;;;;;;3.00;2.40;;;19.10;50.80;;;;;;5345435;26;20543;-77
2024/04/20 08:45:21;;;;;;;2.60;2.40;;;19.30;50.80;;;;;;5354419;26;20477;-76
2024/04/20 08:47:51;;;;;;;2.97;2.63;;;19.40;50.70;;;;;;5345922;26;20888;-78
2024/04/20 08:50:21;;;;;;;3.10;2.60;;;19.50;50.70;;;;;;5332075;26;20565;-77
2024/04/20 08:52:51;;;;;;;4.00;2.60;;;19.60;50.70;;;;;;5316162;26;20554;-80
2024/04/20 08:55:21;;;;;;;2.20;2.10;;;19.70;50.80;;;;;;5332167;26;20571;-76
2024/04/20 08:57:51;;;;;;;2.43;2.33;;;19.90;50.80;;;;;;5343806;26;20520;-77
2024/04/20 09:00:24;;;;;;;2.10;2.00;;;19.90;50.60;;;;;;5335398;26;20543;-77
2024/04/20 09:02:54;;;;;;;4.17;2.30;;;20.00;50.60;;;;;;5312368;26;20586;-80
2024/04/20 09:05:24;;;;;;;2.63;2.07;;;20.20;50.60;;;;;;5349838;26;20467;-79
2024/04/20 09:07:54;;;;;;;2.00;1.90;;;20.20;50.50;;;;;;5307151;26;20593;-80
2024/04/20 09:10:24;;;;;;;3.40;2.37;;;20.20;50.20;;;;;;5350454;26;20497;-78
2024/04/20 09:12:56;;;;;;;1.90;1.80;;;20.20;50.40;;;;;;5346705;26;20468;-82
2024/04/20 09:15:29;;;;;;;2.40;2.17;;;20.10;50.30;;;;;;5343193;26;20495;-78
2024/04/20 09:17:59;;;;;;;2.20;1.97;;;20.00;51.00;;;;;;5352396;26;20578;-78
2024/04/20 09:20:27;;;;;;;2.57;2.23;;;19.90;50.50;;;;;;5307405;26;20479;-78
2024/04/20 09:23:05;;;;;;;3.13;2.07;;;19.90;50.60;;;;;;5341413;26;20478;-78
2024/04/20 09:25:37;;;;;;;2.00;1.90;;;19.80;50.30;;;;;;5332793;26;20529;-80
2024/04/20 09:28:09;;;;;;;2.07;1.97;;;19.80;50.30;;;;;;5301858;26;20572;-80
2024/04/20 09:30:42;;;;;;;1.67;1.57;;;19.80;50.40;;;;;;5354053;26;20545;-81
2024/04/20 09:33:14;;;;;;;3.10;1.80;;;19.70;50.10;;;;;;5339196;26;20476;-78
2024/04/20 09:35:44;;;;;;;2.50;1.90;;;19.60;50.10;;;;;;5356128;26;20529;-77
2024/04/20 09:38:15;;;;;;;2.03;1.93;;;19.70;50.10;;;;;;5359613;26;20894;-77
2024/04/20 09:40:45;;;;;;;1.80;1.70;;;19.70;50.10;;;;;;5344966;26;20478;-77
2024/04/20 09:43:15;;;;;;;2.13;1.90;;;19.70;49.90;;;;;;5331244;26;20523;-78
2024/04/20 09:45:48;;;;;;;1.80;1.63;;;19.80;50.00;;;;;;5356346;26;20555;-79
2024/04/20 09:48:18;;;;;;;3.23;1.80;;;19.80;50.10;;;;;;5350788;26;20602;-79
2024/04/20 09:50:50;;;;;;;2.00;1.90;;;19.90;49.60;;;;;;5299254;26;20527;-78
2024/04/20 09:53:26;;;;;;;3.07;2.10;;;19.90;49.40;;;;;;5347808;26;20483;-74
2024/04/20 09:55:56;;;;;;;1.70;1.60;;;20.00;49.20;;;;;;5350807;26;20475;-77
2024/04/20 09:58:26;;;;;;;2.87;1.80;;;20.00;49.30;;;;;;5337285;26;20479;-78
2024/04/20 10:06:25;;;;;;;1.63;1.53;;;19.90;49.20;;;;;;5356435;26;20483;-78
2024/04/20 10:08:55;;;;;;;1.60;1.50;;;19.90;49.40;;;;;;5322096;26;20489;-79
2024/04/20 10:11:26;;;;;;;1.73;1.50;;;20.00;49.50;;;;;;5357119;26;20563;-78
2024/04/20 10:13:56;;;;;;;1.87;1.67;;;20.10;49.70;;;;;;5335324;26;20542;-78
2024/04/20 10:16:29;;;;;;;2.20;1.53;;;20.30;49.30;;;;;;5323403;26;20503;-82
2024/04/20 10:18:59;;;;;;;1.80;1.57;;;20.50;49.60;;;;;;5336047;26;20539;-79
2024/04/20 10:21:30;;;;;;;1.47;1.33;;;20.60;49.00;;;;;;5314957;26;21116;-76
2024/04/20 10:24:00;;;;;;;1.60;1.50;;;20.80;49.00;;;;;;5357504;26;20567;-81
2024/04/20 10:26:31;;;;;;;1.63;1.50;;;21.10;48.90;;;;;;5343316;26;20584;-77
2024/04/20 10:29:09;;;;;;;1.90;1.80;;;21.40;48.70;;;;;;5325254;26;20800;-77
2024/04/20 10:31:42;;;;;;;1.70;1.60;;;21.70;48.60;;;;;;5357467;26;20475;-77
2024/04/20 10:34:13;;;;;;;1.70;1.60;;;21.90;48.40;;;;;;5340936;26;20474;-77
2024/04/20 10:36:43;;;;;;;1.97;1.70;;;22.20;48.90;;;;;;5364919;26;20522;-77
2024/04/20 10:39:15;;;;;;;2.53;1.90;;;22.40;48.10;;;;;;5345090;26;20468;-74
2024/04/20 10:41:45;;;;;;;1.90;1.80;;;22.50;47.90;;;;;;5339348;26;20480;-80
2024/04/20 10:44:15;;;;;;;1.67;1.40;;;22.60;47.80;;;;;;5323598;26;20479;-79
2024/04/20 10:46:53;;;;;;;1.23;1.23;;;22.80;48.30;;;;;;5349791;26;20476;-81
2024/04/20 10:49:25;;;;;;;1.70;1.30;;;23.10;47.70;;;;;;5327857;26;20479;-81
2024/04/20 10:51:55;;;;;;;1.40;1.30;;;23.30;47.40;;;;;;5338074;26;21187;-78
2024/04/20 10:54:27;;;;;;;1.50;1.40;;;23.30;47.10;;;;;;5341921;26;20472;-77
2024/04/20 10:57:11;;;;;;;1.37;1.27;;;23.40;47.40;;;;;;5342853;26;20578;-77
2024/04/20 10:59:46;;;;;;;1.30;1.23;;;23.70;47.30;;;;;;5350150;26;20507;-78
2024/04/20 11:02:19;;;;;;;1.63;1.40;;;23.90;47.40;;;;;;5352774;26;20487;-78
2024/04/20 11:04:51;;;;;;;3.77;1.50;;;24.30;47.60;;;;;;5355516;26;20460;-81
2024/04/20 11:07:24;;;;;;;2.20;1.20;;;24.60;47.30;;;;;;5352107;26;20492;-78
2024/04/20 11:09:54;;;;;;;1.30;1.20;;;24.80;46.50;;;;;;5357512;26;20463;-79
2024/04/20 11:12:24;;;;;;;1.47;1.20;;;24.80;46.30;;;;;;5303083;26;20455;-78
2024/04/20 11:15:02;;;;;;;1.83;1.27;;;24.70;46.10;;;;;;5366498;26;20482;-77
2024/04/20 11:17:36;;;;;;;1.57;1.00;;;24.50;46.00;;;;;;5333847;26;20503;-79
2024/04/20 11:20:08;;;;;;;1.83;1.10;;;24.20;46.10;;;;;;5348834;26;20505;-79
2024/04/20 11:22:37;;;;;;;1.30;1.10;;;24.00;46.30;;;;;;5356423;26;20495;-81
2024/04/20 11:25:12;;;;;;;1.30;1.20;;;23.90;46.50;;;;;;5337697;26;20493;-78
2024/04/20 11:27:43;;;;;;;2.03;1.33;;;23.70;46.90;;;;;;5337991;26;20533;-79
2024/04/20 11:30:14;;;;;;;1.67;1.57;;;23.60;47.00;;;;;;5345907;26;20488;-77
2024/04/20 11:32:57;;;;;;;2.30;1.00;;;23.50;46.90;;;;;;5349958;26;20491;-77
2024/04/20 11:35:27;;;;;;;3.33;1.20;;;23.50;47.60;;;;;;5350371;26;20479;-78
2024/04/20 11:38:04;;;;;;;4.10;1.40;;;23.40;47.10;;;;;;5346238;26;20455;-76
2024/04/20 11:40:34;;;;;;;1.27;1.10;;;23.30;47.40;;;;;;5342433;26;20525;-78
2024/04/20 11:43:05;;;;;;;1.93;1.53;;;23.40;47.40;;;;;;5326949;26;21127;-75
2024/04/20 11:45:35;;;;;;;1.50;1.40;;;23.50;47.50;;;;;;5341706;26;20527;-78
2024/04/20 11:48:10;;;;;;;2.40;1.00;;;23.70;47.60;;;;;;5336930;26;20495;-81
2024/04/20 11:50:41;;;;;;;1.67;1.30;;;23.80;47.00;;;;;;5348328;26;20546;-78
2024/04/20 11:55:56;;;;;;;1.70;1.60;;;23.90;47.10;;;;;;5334847;26;20495;-77
2024/04/20 11:58:27;;;;;;;1.73;1.63;;;24.20;48.50;;;;;;5348913;26;20456;-77
2024/04/20 12:00:57;;;;;;;3.00;1.70;;;24.50;46.80;;;;;;5347737;26;20491;-79
2024/04/20 12:03:30;;;;;;;1.50;1.40;;;26.30;49.20;;;;;;5315056;26;20451;-78
2024/04/20 12:05:59;;;;;;;1.13;1.13;;;28.10;42.60;;;;;;5303171;26;20459;-78
2024/04/20 12:08:30;;;;;;;1.30;1.20;;;29.40;35.20;;;;;;5349951;26;20452;-87
2024/04/20 12:10:59;;;;;;;16.67;13.27;;;30.50;31.90;;;;;;5349113;26;20489;-79
2024/04/20 12:13:30;;;;;;;2.17;1.67;;;29.40;29.70;;;;;;5329738;26;20461;-79
2024/04/20 12:16:00;;;;;;;1.10;1.10;;;27.80;29.50;;;;;;5347839;26;20475;-79
2024/04/20 12:18:33;;;;;;;2.47;1.90;;;28.80;30.40;;;;;;5343818;26;20499;-82
2024/04/20 12:21:12;;;;;;;2.57;1.80;;;28.10;28.10;;;;;;5357462;26;20487;-78
2024/04/20 12:23:42;;;;;;;1.80;1.57;;;26.80;28.50;;;;;;5344707;26;20503;-78
2024/04/20 12:26:12;;;;;;;1.20;1.20;;;25.70;30.20;;;;;;5350229;26;20490;-89
2024/04/20 12:28:42;;;;;;;1.40;1.30;;;27.70;31.60;;;;;;5367619;26;20477;-88
2024/04/20 12:31:13;;;;;;;1.20;1.10;;;30.20;30.00;;;;;;5367564;26;20553;-86
2024/04/20 12:33:47;;;;;;;1.20;1.20;;;30.60;27.40;;;;;;5340079;26;20522;-88
2024/04/20 12:36:17;;;;;;;1.30;1.20;;;31.00;28.10;;;;;;5363350;26;20467;-86
2024/04/20 12:38:47;;;;;;;1.30;1.20;;;30.30;27.20;;;;;;5354267;26;20506;-91
2024/04/20 12:41:23;;;;;;;2.73;1.03;;;29.40;27.00;;;;;;5345079;26;20475;-84
2024/04/20 12:44:18;;;;;;;1.43;1.33;;;28.40;26.90;;;;;;5351741;26;20532;-88
2024/04/20 12:46:48;;;;;;;1.80;1.70;;;27.90;29.00;;;;;;5368936;26;20473;-89
2024/04/20 12:49:21;;;;;;;1.50;1.40;;;27.80;29.20;;;;;;5337880;26;20556;-86
2024/04/20 12:51:51;;;;;;;1.27;1.17;;;29.50;27.60;;;;;;5366289;26;20559;-88
2024/04/20 12:54:21;;;;;;;26.53;1.57;;;29.40;26.10;;;;;;5361376;26;20515;-81
2024/04/20 12:56:55;;;;;;;1.70;1.40;;;28.10;26.50;;;;;;5316215;26;20464;-81
2024/04/20 12:59:25;;;;;;;1.40;1.30;;;26.60;28.00;;;;;;5307660;26;20503;-79
2024/04/20 13:01:55;;;;;;;1.00;1.00;;;26.40;29.10;;;;;;5341314;26;21179;-83
2024/04/20 13:04:33;;;;;;;1.50;1.23;;;25.50;28.30;;;;;;5334906;26;20484;-79
2024/04/20 13:07:03;;;;;;;1.70;1.60;;;24.50;28.80;;;;;;5339709;26;20482;-80
2024/04/20 13:09:33;;;;;;;1.50;1.40;;;23.50;29.70;;;;;;5338687;26;20444;-80
2024/04/20 13:12:14;;;;;;;1.57;1.40;;;24.20;32.10;;;;;;5344587;26;20471;-83
2024/04/20 13:15:03;;;;;;;2.03;1.93;;;25.70;30.40;;;;;;5350805;26;20532;-82
2024/04/20 13:18:17;;;;;;;8.00;1.80;;;25.20;30.00;;;;;;5343985;26;20437;-81